Imperial Eagle — V7TK5 — position and weather

sailwx.info

Track history (hours):
 
Tides and Currents Weather Stations Pressure Air Temp Water Temp Dewpoint Dewpoint Depression Visibility Wind Speed Wind Dir Waves Ship Positions

Imperial Eagle

Last reported at 2015-Jul-29 05:17 UTC. Time now 2015-Jul-29 06:50 UTC.
Position N 31°60' E 120°40'.

Length 190 m; draft 12.5 m.

Type: Cargo ship. MMSI: 256759020.

Date/timePositionNaut miles runAvg speedWind from/ knotsBaromVisibWave heightAir tempDewpointWater temp
2015-Jul-29 05:17N 31°60' E 120°40'0 0.0
2015-Jul-29 04:08N 31°60' E 120°40'0 0.0
2015-Jul-29 03:11N 31°60' E 120°40'0 0.0
2015-Jul-29 02:29N 31°60' E 120°40'0 0.0
2015-Jul-29 01:26N 31°60' E 120°40'0 0.0
2015-Jul-29 00:32N 31°60' E 120°40'0 0.0
2015-Jul-28 23:32N 31°60' E 120°40'0 0.0
2015-Jul-28 22:32N 31°60' E 120°40'0 0.0
2015-Jul-28 21:32N 31°60' E 120°40'0 0.0
2015-Jul-28 20:23N 31°60' E 120°40'0 0.0
2015-Jul-28 19:29N 31°60' E 120°40'0 0.0
2015-Jul-28 18:29N 31°60' E 120°40'0 0.0
2015-Jul-28 17:32N 31°60' E 120°40'0 0.0
2015-Jul-28 16:23N 31°60' E 120°40'0 0.0
2015-Jul-28 15:32N 31°60' E 120°40'0 0.0
2015-Jul-28 14:29N 31°60' E 120°40'0 0.0
2015-Jul-28 13:23N 31°60' E 120°40'0 0.0
2015-Jul-28 12:23N 31°60' E 120°40'0 0.0
2015-Jul-28 11:29N 31°60' E 120°40'0 0.0
2015-Jul-28 10:29N 31°60' E 120°40'0 0.0
2015-Jul-28 09:29N 31°60' E 120°40'0 0.0
2015-Jul-28 08:17N 31°60' E 120°40'0 0.0
2015-Jul-28 07:23N 31°60' E 120°40'0 0.0
2015-Jul-28 06:29N 31°60' E 120°40'0 0.0
2015-Jul-28 05:17N 31°60' E 120°40'0 0.0
2015-Jul-28 04:29N 31°60' E 120°40'0 0.0
2015-Jul-28 03:23N 31°60' E 120°40'0 0.0
2015-Jul-28 02:23N 31°60' E 120°40'0 0.0
2015-Jul-28 01:29N 31°60' E 120°40'0 0.0
2015-Jul-28 00:17N 31°60' E 120°40'0 0.0
2015-Jul-27 23:32N 31°60' E 120°40'0 0.0
2015-Jul-27 22:29N 31°60' E 120°40'0 0.0
2015-Jul-27 20:32N 31°60' E 120°40'0 0.0
2015-Jul-27 19:32N 31°60' E 120°40'0 0.0
2015-Jul-27 18:32N 31°60' E 120°40'0 0.0
2015-Jul-27 17:32N 31°60' E 120°40'0 0.0
2015-Jul-27 16:32N 31°60' E 120°40'0 0.0
2015-Jul-27 15:05N 31°60' E 120°40'0 0.0
2015-Jul-27 10:26N 31°60' E 120°40'3 3.6
2015-Jul-27 09:33N 32°00' E 120°44'8 8.2
2015-Jul-27 08:33N 31°57' E 120°52'11 8.5
2015-Jul-27 07:13N 31°47' E 120°59'6 9.5
2015-Jul-27 06:33N 31°45' E 121°06'10 9.9
2015-Jul-27 05:33N 31°38' E 121°15'1110.8
2015-Jul-27 04:33N 31°31' E 121°24'10 9.7
2015-Jul-27 03:33N 31°24' E 121°33'10 9.9
2015-Jul-27 02:33N 31°20' E 121°43'10 9.7
2015-Jul-27 01:33N 31°16' E 121°53'10 9.9
2015-Jul-27 00:33N 31°14' E 122°05'9 9.3
2015-Jul-26 23:33N 31°09' E 122°14'1010.1
2015-Jul-26 22:33N 31°06' E 122°25'5 5.2
2015-Jul-26 21:33N 31°08' E 122°31'6 6.0
2015-Jul-26 20:33N 31°13' E 122°36'0 0.2
2015-Jul-26 19:33N 31°12' E 122°36'0 0.1
2015-Jul-26 18:33N 31°12' E 122°36'0 0.1
2015-Jul-26 17:33N 31°12' E 122°36'2 1.9
2015-Jul-26 16:33N 31°14' E 122°37'10 9.7
2015-Jul-26 15:33N 31°23' E 122°42'1312.6
2015-Jul-26 14:32N 31°35' E 122°47'1414.0
2015-Jul-26 13:33N 31°48' E 122°53'1513.2
2015-Jul-26 12:24N 32°03' E 122°54'1113.2
2015-Jul-26 11:34N 32°14' E 122°53'1313.0
2015-Jul-26 10:33N 32°27' E 122°51'1313.2
2015-Jul-26 09:33N 32°40' E 122°50'2814.0
2015-Jul-26 07:31N 33°08' E 122°45'16812.0
2015-Jul-25 17:26N 34°56' E 120°10'1213.9
2015-Jul-25 16:33N 34°54' E 119°55'1211.7
2015-Jul-25 15:32N 34°49' E 119°41'10 9.8
2015-Jul-25 14:29N 34°44' E 119°30'6 4.8
2015-Jul-25 13:15N 34°45' E 119°23'0 0.0
2015-Jul-25 11:15N 34°45' E 119°23'0 0.0
2015-Jul-25 10:33N 34°45' E 119°23'0 0.0
2015-Jul-25 08:33N 34°45' E 119°23'0 0.0
2015-Jul-25 04:33N 34°45' E 119°23'0 0.0
2015-Jul-25 03:09N 34°45' E 119°23'0 0.0
2015-Jul-25 02:33N 34°45' E 119°23'0 0.0
2015-Jul-25 01:27N 34°45' E 119°23'0 0.0
2015-Jul-25 00:33N 34°45' E 119°23'0 0.0
2015-Jul-24 23:33N 34°45' E 119°23'0 0.0
2015-Jul-24 21:33N 34°45' E 119°23'0 0.0
2015-Jul-24 20:33N 34°45' E 119°23'0 0.0
2015-Jul-24 19:33N 34°45' E 119°23'0 0.0
2015-Jul-24 18:33N 34°45' E 119°23'0 0.0
2015-Jul-24 17:21N 34°45' E 119°23'0 0.0
2015-Jul-24 16:21N 34°45' E 119°23'0 0.0
2015-Jul-24 15:33N 34°45' E 119°23'0 0.0
2015-Jul-24 14:21N 34°45' E 119°23'0 0.0
2015-Jul-24 13:21N 34°45' E 119°23'0 0.0
2015-Jul-24 12:33N 34°45' E 119°23'0 0.0
2015-Jul-24 11:33N 34°45' E 119°23'0 0.0
2015-Jul-24 10:27N 34°45' E 119°23'0 0.0
2015-Jul-24 09:33N 34°45' E 119°23'0 0.0
2015-Jul-24 08:33N 34°45' E 119°23'0 0.0
2015-Jul-24 07:21N 34°45' E 119°23'0 0.0
2015-Jul-24 06:27N 34°45' E 119°23'0 0.0
2015-Jul-24 05:33N 34°45' E 119°23'0 0.0
2015-Jul-24 04:33N 34°45' E 119°23'0 0.0
2015-Jul-24 03:33N 34°45' E 119°23'0 0.0
2015-Jul-24 02:27N 34°45' E 119°23'0 0.0
2015-Jul-24 01:33N 34°45' E 119°23'0 0.0
2015-Jul-23 23:21N 34°45' E 119°23'0 0.0
2015-Jul-23 22:33N 34°45' E 119°23'6 4.7
2015-Jul-23 21:20N 34°44' E 119°30'5 5.0
2015-Jul-23 20:25N 34°47' E 119°35'1 1.4
2015-Jul-23 19:26N 34°47' E 119°36'4 3.7
2015-Jul-23 18:28N 34°49' E 119°40'4 4.0
2015-Jul-23 17:32N 34°52' E 119°43'0 0.0
2015-Jul-23 16:32N 34°52' E 119°43'0 0.1
2015-Jul-23 15:26N 34°52' E 119°43'0 0.1
2015-Jul-23 13:32N 34°52' E 119°43'0 0.0
2015-Jul-23 12:32N 34°52' E 119°43'0 0.0
2015-Jul-23 11:32N 34°52' E 119°43'0 0.0
2015-Jul-23 10:26N 34°52' E 119°43'0 0.0
2015-Jul-23 09:32N 34°52' E 119°43'0 0.1
2015-Jul-23 08:32N 34°52' E 119°43'0 0.1
2015-Jul-23 07:32N 34°52' E 119°43'0 0.0
2015-Jul-23 06:26N 34°52' E 119°43'0 0.0
2015-Jul-23 05:32N 34°52' E 119°43'0 0.0
2015-Jul-23 04:26N 34°52' E 119°43'0 0.1
2015-Jul-23 03:26N 34°52' E 119°43'0 0.1
2015-Jul-23 02:32N 34°52' E 119°43'0 0.0
2015-Jul-23 01:32N 34°52' E 119°43'0 0.0
2015-Jul-23 00:26N 34°52' E 119°43'0 0.1
2015-Jul-22 23:20N 34°52' E 119°43'0 0.1
2015-Jul-22 22:20N 34°52' E 119°43'0 0.1
2015-Jul-22 21:26N 34°52' E 119°43'0 0.0
2015-Jul-22 20:20N 34°52' E 119°43'0 0.1
2015-Jul-22 19:32N 34°52' E 119°43'0 0.0
2015-Jul-22 18:32N 34°52' E 119°43'0 0.0
2015-Jul-22 17:26N 34°52' E 119°43'0 0.0
2015-Jul-22 16:26N 34°52' E 119°43'1 0.7
2015-Jul-22 15:33N 34°52' E 119°43'8 8.0
2015-Jul-22 14:33N 34°54' E 119°53'1211.7
2015-Jul-22 13:33N 34°56' E 120°07'1413.9
2015-Jul-22 12:33N 34°56' E 120°24'13612.2
2015-Jul-22 01:23N 33°44' E 122°43'1414.1
2015-Jul-22 00:26N 33°30' E 122°47'1214.0
2015-Jul-21 23:33N 33°18' E 122°49'129 4.7
2015-Jul-20 20:13N 31°10' E 122°38'0 0.0
2015-Jul-20 19:27N 31°10' E 122°38'  
Track history (hours):
 
Tides and Currents Weather Stations Pressure Air Temp Water Temp Dewpoint Dewpoint Depression Visibility Wind Speed Wind Dir Waves Ship Positions

Imperial Eagle

Last reported at 2015-Jul-29 05:17 UTC. Time now 2015-Jul-29 06:50 UTC.
Position N 31°60' E 120°40'.

Length 190 m; draft 12.5 m.

Type: Cargo ship. MMSI: 256759020.

Date/timePositionNaut miles runAvg speedWind from/ knotsBaromVisibWave heightAir tempDewpointWater temp
2015-Jul-29 05:17N 31°60' E 120°40'0 0.0
2015-Jul-29 04:08N 31°60' E 120°40'0 0.0
2015-Jul-29 03:11N 31°60' E 120°40'0 0.0
2015-Jul-29 02:29N 31°60' E 120°40'0 0.0
2015-Jul-29 01:26N 31°60' E 120°40'0 0.0
2015-Jul-29 00:32N 31°60' E 120°40'0 0.0
2015-Jul-28 23:32N 31°60' E 120°40'0 0.0
2015-Jul-28 22:32N 31°60' E 120°40'0 0.0
2015-Jul-28 21:32N 31°60' E 120°40'0 0.0
2015-Jul-28 20:23N 31°60' E 120°40'0 0.0
2015-Jul-28 19:29N 31°60' E 120°40'0 0.0
2015-Jul-28 18:29N 31°60' E 120°40'0 0.0
2015-Jul-28 17:32N 31°60' E 120°40'0 0.0
2015-Jul-28 16:23N 31°60' E 120°40'0 0.0
2015-Jul-28 15:32N 31°60' E 120°40'0 0.0
2015-Jul-28 14:29N 31°60' E 120°40'0 0.0
2015-Jul-28 13:23N 31°60' E 120°40'0 0.0
2015-Jul-28 12:23N 31°60' E 120°40'0 0.0
2015-Jul-28 11:29N 31°60' E 120°40'0 0.0
2015-Jul-28 10:29N 31°60' E 120°40'0 0.0
2015-Jul-28 09:29N 31°60' E 120°40'0 0.0
2015-Jul-28 08:17N 31°60' E 120°40'0 0.0
2015-Jul-28 07:23N 31°60' E 120°40'0 0.0
2015-Jul-28 06:29N 31°60' E 120°40'0 0.0
2015-Jul-28 05:17N 31°60' E 120°40'0 0.0
2015-Jul-28 04:29N 31°60' E 120°40'0 0.0
2015-Jul-28 03:23N 31°60' E 120°40'0 0.0
2015-Jul-28 02:23N 31°60' E 120°40'0 0.0
2015-Jul-28 01:29N 31°60' E 120°40'0 0.0
2015-Jul-28 00:17N 31°60' E 120°40'0 0.0
2015-Jul-27 23:32N 31°60' E 120°40'0 0.0
2015-Jul-27 22:29N 31°60' E 120°40'0 0.0
2015-Jul-27 20:32N 31°60' E 120°40'0 0.0
2015-Jul-27 19:32N 31°60' E 120°40'0 0.0
2015-Jul-27 18:32N 31°60' E 120°40'0 0.0
2015-Jul-27 17:32N 31°60' E 120°40'0 0.0
2015-Jul-27 16:32N 31°60' E 120°40'0 0.0
2015-Jul-27 15:05N 31°60' E 120°40'0 0.0
2015-Jul-27 10:26N 31°60' E 120°40'3 3.6
2015-Jul-27 09:33N 32°00' E 120°44'8 8.2
2015-Jul-27 08:33N 31°57' E 120°52'11 8.5
2015-Jul-27 07:13N 31°47' E 120°59'6 9.5
2015-Jul-27 06:33N 31°45' E 121°06'10 9.9
2015-Jul-27 05:33N 31°38' E 121°15'1110.8
2015-Jul-27 04:33N 31°31' E 121°24'10 9.7
2015-Jul-27 03:33N 31°24' E 121°33'10 9.9
2015-Jul-27 02:33N 31°20' E 121°43'10 9.7
2015-Jul-27 01:33N 31°16' E 121°53'10 9.9
2015-Jul-27 00:33N 31°14' E 122°05'9 9.3
2015-Jul-26 23:33N 31°09' E 122°14'1010.1
2015-Jul-26 22:33N 31°06' E 122°25'5 5.2
2015-Jul-26 21:33N 31°08' E 122°31'6 6.0
2015-Jul-26 20:33N 31°13' E 122°36'0 0.2
2015-Jul-26 19:33N 31°12' E 122°36'0 0.1
2015-Jul-26 18:33N 31°12' E 122°36'0 0.1
2015-Jul-26 17:33N 31°12' E 122°36'2 1.9
2015-Jul-26 16:33N 31°14' E 122°37'10 9.7
2015-Jul-26 15:33N 31°23' E 122°42'1312.6
2015-Jul-26 14:32N 31°35' E 122°47'1414.0
2015-Jul-26 13:33N 31°48' E 122°53'1513.2
2015-Jul-26 12:24N 32°03' E 122°54'1113.2
2015-Jul-26 11:34N 32°14' E 122°53'1313.0
2015-Jul-26 10:33N 32°27' E 122°51'1313.2
2015-Jul-26 09:33N 32°40' E 122°50'2814.0
2015-Jul-26 07:31N 33°08' E 122°45'16812.0
2015-Jul-25 17:26N 34°56' E 120°10'1213.9
2015-Jul-25 16:33N 34°54' E 119°55'1211.7
2015-Jul-25 15:32N 34°49' E 119°41'10 9.8
2015-Jul-25 14:29N 34°44' E 119°30'6 4.8
2015-Jul-25 13:15N 34°45' E 119°23'0 0.0
2015-Jul-25 11:15N 34°45' E 119°23'0 0.0
2015-Jul-25 10:33N 34°45' E 119°23'0 0.0
2015-Jul-25 08:33N 34°45' E 119°23'0 0.0
2015-Jul-25 04:33N 34°45' E 119°23'0 0.0
2015-Jul-25 03:09N 34°45' E 119°23'0 0.0
2015-Jul-25 02:33N 34°45' E 119°23'0 0.0
2015-Jul-25 01:27N 34°45' E 119°23'0 0.0
2015-Jul-25 00:33N 34°45' E 119°23'0 0.0
2015-Jul-24 23:33N 34°45' E 119°23'0 0.0
2015-Jul-24 21:33N 34°45' E 119°23'0 0.0
2015-Jul-24 20:33N 34°45' E 119°23'0 0.0
2015-Jul-24 19:33N 34°45' E 119°23'0 0.0
2015-Jul-24 18:33N 34°45' E 119°23'0 0.0
2015-Jul-24 17:21N 34°45' E 119°23'0 0.0
2015-Jul-24 16:21N 34°45' E 119°23'0 0.0
2015-Jul-24 15:33N 34°45' E 119°23'0 0.0
2015-Jul-24 14:21N 34°45' E 119°23'0 0.0
2015-Jul-24 13:21N 34°45' E 119°23'0 0.0
2015-Jul-24 12:33N 34°45' E 119°23'0 0.0
2015-Jul-24 11:33N 34°45' E 119°23'0 0.0
2015-Jul-24 10:27N 34°45' E 119°23'0 0.0
2015-Jul-24 09:33N 34°45' E 119°23'0 0.0
2015-Jul-24 08:33N 34°45' E 119°23'0 0.0
2015-Jul-24 07:21N 34°45' E 119°23'0 0.0
2015-Jul-24 06:27N 34°45' E 119°23'0 0.0
2015-Jul-24 05:33N 34°45' E 119°23'0 0.0
2015-Jul-24 04:33N 34°45' E 119°23'0 0.0
2015-Jul-24 03:33N 34°45' E 119°23'0 0.0
2015-Jul-24 02:27N 34°45' E 119°23'0 0.0
2015-Jul-24 01:33N 34°45' E 119°23'0 0.0
2015-Jul-23 23:21N 34°45' E 119°23'0 0.0
2015-Jul-23 22:33N 34°45' E 119°23'6 4.7
2015-Jul-23 21:20N 34°44' E 119°30'5 5.0
2015-Jul-23 20:25N 34°47' E 119°35'1 1.4
2015-Jul-23 19:26N 34°47' E 119°36'4 3.7
2015-Jul-23 18:28N 34°49' E 119°40'4 4.0
2015-Jul-23 17:32N 34°52' E 119°43'0 0.0
2015-Jul-23 16:32N 34°52' E 119°43'0 0.1
2015-Jul-23 15:26N 34°52' E 119°43'0 0.1
2015-Jul-23 13:32N 34°52' E 119°43'0 0.0
2015-Jul-23 12:32N 34°52' E 119°43'0 0.0
2015-Jul-23 11:32N 34°52' E 119°43'0 0.0
2015-Jul-23 10:26N 34°52' E 119°43'0 0.0
2015-Jul-23 09:32N 34°52' E 119°43'0 0.1
2015-Jul-23 08:32N 34°52' E 119°43'0 0.1
2015-Jul-23 07:32N 34°52' E 119°43'0 0.0
2015-Jul-23 06:26N 34°52' E 119°43'0 0.0
2015-Jul-23 05:32N 34°52' E 119°43'0 0.0
2015-Jul-23 04:26N 34°52' E 119°43'0 0.1
2015-Jul-23 03:26N 34°52' E 119°43'0 0.1
2015-Jul-23 02:32N 34°52' E 119°43'0 0.0
2015-Jul-23 01:32N 34°52' E 119°43'0 0.0
2015-Jul-23 00:26N 34°52' E 119°43'0 0.1
2015-Jul-22 23:20N 34°52' E 119°43'0 0.1
2015-Jul-22 22:20N 34°52' E 119°43'0 0.1
2015-Jul-22 21:26N 34°52' E 119°43'0 0.0
2015-Jul-22 20:20N 34°52' E 119°43'0 0.1
2015-Jul-22 19:32N 34°52' E 119°43'0 0.0
2015-Jul-22 18:32N 34°52' E 119°43'0 0.0
2015-Jul-22 17:26N 34°52' E 119°43'0 0.0
2015-Jul-22 16:26N 34°52' E 119°43'1 0.7
2015-Jul-22 15:33N 34°52' E 119°43'8 8.0
2015-Jul-22 14:33N 34°54' E 119°53'1211.7
2015-Jul-22 13:33N 34°56' E 120°07'1413.9
2015-Jul-22 12:33N 34°56' E 120°24'13612.2
2015-Jul-22 01:23N 33°44' E 122°43'1414.1
2015-Jul-22 00:26N 33°30' E 122°47'1214.0
2015-Jul-21 23:33N 33°18' E 122°49'129 4.7
2015-Jul-20 20:13N 31°10' E 122°38'0 0.0
2015-Jul-20 19:27N 31°10' E 122°38'  

Dump ship's entire track history